Terminal Aerodrome Forecast
Issued by NWS

Home | Current Version | Previous Version | Text Only | Print | Product List | Glossary On
Versions: 1 2 3 4 5 6 7 8 9 10 11 12 13 14 15
000
FTUS43 KDTX 301120
TAFDET
TAF
KDET 301120Z 3012/0112 VRB04KT 5SM BR BKN012 OVC025
     FM301400 26005KT P6SM BKN025
     FM301600 24007KT P6SM BKN040
      TEMPO 3020/3023 4SM TSRA OVC028CB
     FM010100 28006KT P6SM BKN060
     FM011000 30006KT 5SM BR OVC007=

USA.gov is the U.S. government's official web portal to all federal, state and local government web resources and services.